Airfield :
LOGIN :

Register | Disclaimer

   EN    FR    IT 

 










Legend :    VFR   Marginal VFR   IFR   Intensive IFR   Very Intensive IFR
Visi :
Ceiling :
>= 8 km
>= 3000ft
5 to 8 km
1000 to 3000 ft
1500m to 5 km
500 to 1000 ft
800 to 1500m
200 to 500 ft
< 800m
< 200 ft
Symbols :   Thunderstorms  Fog  Heavy snow  Heavy precipitations  Wind > 20 kt
SIGMETs :     Misc.  Thunderstorms  Icing  Turbulence  Mountain Waves  Volcanic Ashes







- Airport Elevation : 13 ft
- IATA code : OST


EBOS - Oostend bruges Int.

CURRENT METAR :
  • 261150Z 29009KT 9999 FEW020 09/05 Q1034 NOSIG

EXPIRED METARs :
  • 261120Z 29009KT 9999 FEW017 09/04 Q1034 NOSIG
  • 261050Z 30008KT 9999 FEW017 SCT044 09/04 Q1034 NOSIG
  • 261020Z 29009KT 9999 FEW017 SCT044 08/04 Q1034 NOSIG
  • 260950Z 30008KT 9999 FEW017 08/04 Q1034 NOSIG
  • 260920Z 29007KT 9999 FEW018 09/04 Q1034 NOSIG

TAF TAF EBOS
Valid from the 26 at 12:00 until the 27 at 18:00 UTC


261110Z 2612/2718 32008KT 9999 FEW025
PROB30
TEMPO 2703/2707 2500 MIFG
No reported NOTAMs for that airfield.



MET'MAP, your aeronautical weather chart ! - Copyright ORBIFLY December 2007 - Disclaimer

ORBIFLY MET'MAP TEAM :

Programming & Development : Alexandra Zaïnal
Concept & Development : Baudouin d'Aumeries
Co-Development & Prog : Marc-Olivier Méhu
Technical & hardware support : Manuel Goepfert

Contact : metmap@orbifly.com




SOURCES & CREDITS :

   NOAA